sensor_id;sensor_type;location;lat;lon;timestamp;P1;durP1;ratioP1;P2;durP2;ratioP2
2866;SDS011;1441;48.886;8.728;2023-03-01T00:02:19;14.80;;;9.03;;
2866;SDS011;1441;48.886;8.728;2023-03-01T00:04:45;13.30;;;8.40;;
2866;SDS011;1441;48.886;8.728;2023-03-01T00:07:10;16.53;;;8.80;;
2866;SDS011;1441;48.886;8.728;2023-03-01T00:09:36;15.60;;;8.50;;
2866;SDS011;1441;48.886;8.728;2023-03-01T00:12:02;13.60;;;8.30;;
2866;SDS011;1441;48.886;8.728;2023-03-01T00:14:29;16.47;;;8.93;;
2866;SDS011;1441;48.886;8.728;2023-03-01T00:16:54;16.53;;;8.30;;
2866;SDS011;1441;48.886;8.728;2023-03-01T00:19:20;16.80;;;8.50;;
2866;SDS011;1441;48.886;8.728;2023-03-01T00:21:47;13.43;;;8.10;;
2866;SDS011;1441;48.886;8.728;2023-03-01T00:24:13;24.63;;;9.87;;
2866;SDS011;1441;48.886;8.728;2023-03-01T00:26:39;14.13;;;9.07;;
2866;SDS011;1441;48.886;8.728;2023-03-01T00:29:04;13.67;;;8.53;;
2866;SDS011;1441;48.886;8.728;2023-03-01T00:31:31;16.10;;;8.33;;
2866;SDS011;1441;48.886;8.728;2023-03-01T00:33:58;11.90;;;8.10;;
2866;SDS011;1441;48.886;8.728;2023-03-01T00:36:26;13.57;;;8.77;;
2866;SDS011;1441;48.886;8.728;2023-03-01T00:38:54;15.60;;;9.27;;
2866;SDS011;1441;48.886;8.728;2023-03-01T00:41:20;19.03;;;9.10;;
2866;SDS011;1441;48.886;8.728;2023-03-01T00:43:51;14.80;;;9.00;;
2866;SDS011;1441;48.886;8.728;2023-03-01T00:46:19;15.20;;;8.20;;
2866;SDS011;1441;48.886;8.728;2023-03-01T00:48:46;12.47;;;8.40;;
2866;SDS011;1441;48.886;8.728;2023-03-01T00:51:16;14.17;;;8.13;;
2866;SDS011;1441;48.886;8.728;2023-03-01T00:53:44;15.27;;;9.13;;
2866;SDS011;1441;48.886;8.728;2023-03-01T00:56:11;15.70;;;9.43;;
2866;SDS011;1441;48.886;8.728;2023-03-01T00:58:37;15.77;;;9.00;;
2866;SDS011;1441;48.886;8.728;2023-03-01T01:01:10;17.43;;;8.37;;
2866;SDS011;1441;48.886;8.728;2023-03-01T01:03:52;15.53;;;8.37;;
2866;SDS011;1441;48.886;8.728;2023-03-01T01:06:41;14.87;;;9.30;;
2866;SDS011;1441;48.886;8.728;2023-03-01T01:09:10;11.87;;;8.07;;
2866;SDS011;1441;48.886;8.728;2023-03-01T01:11:42;10.87;;;7.93;;
2866;SDS011;1441;48.886;8.728;2023-03-01T01:14:09;13.83;;;9.10;;
2866;SDS011;1441;48.886;8.728;2023-03-01T01:16:35;15.73;;;8.80;;
2866;SDS011;1441;48.886;8.728;2023-03-01T01:19:00;14.20;;;8.40;;
2866;SDS011;1441;48.886;8.728;2023-03-01T01:21:26;13.53;;;8.83;;
2866;SDS011;1441;48.886;8.728;2023-03-01T01:23:52;15.00;;;9.03;;
2866;SDS011;1441;48.886;8.728;2023-03-01T01:26:23;20.33;;;10.20;;
2866;SDS011;1441;48.886;8.728;2023-03-01T01:28:50;15.30;;;9.13;;
2866;SDS011;1441;48.886;8.728;2023-03-01T01:31:17;14.33;;;8.23;;
2866;SDS011;1441;48.886;8.728;2023-03-01T01:33:43;13.73;;;9.00;;
2866;SDS011;1441;48.886;8.728;2023-03-01T01:36:10;16.57;;;9.80;;
2866;SDS011;1441;48.886;8.728;2023-03-01T01:38:36;17.60;;;9.47;;
2866;SDS011;1441;48.886;8.728;2023-03-01T01:41:02;15.93;;;10.30;;
2866;SDS011;1441;48.886;8.728;2023-03-01T01:43:29;14.40;;;8.77;;
2866;SDS011;1441;48.886;8.728;2023-03-01T01:46:04;14.70;;;9.63;;
2866;SDS011;1441;48.886;8.728;2023-03-01T01:48:40;15.40;;;8.93;;
2866;SDS011;1441;48.886;8.728;2023-03-01T01:51:13;17.20;;;9.53;;
2866;SDS011;1441;48.886;8.728;2023-03-01T01:53:42;16.20;;;8.50;;
2866;SDS011;1441;48.886;8.728;2023-03-01T01:56:09;16.40;;;9.53;;
2866;SDS011;1441;48.886;8.728;2023-03-01T01:58:37;15.70;;;9.50;;
2866;SDS011;1441;48.886;8.728;2023-03-01T02:01:04;18.53;;;9.60;;
2866;SDS011;1441;48.886;8.728;2023-03-01T02:03:31;16.73;;;9.77;;
2866;SDS011;1441;48.886;8.728;2023-03-01T02:08:28;17.70;;;10.30;;
2866;SDS011;1441;48.886;8.728;2023-03-01T02:10:57;19.43;;;10.47;;
2866;SDS011;1441;48.886;8.728;2023-03-01T02:13:24;17.77;;;10.77;;
2866;SDS011;1441;48.886;8.728;2023-03-01T02:15:50;17.77;;;9.73;;
2866;SDS011;1441;48.886;8.728;2023-03-01T02:18:17;14.40;;;9.70;;
2866;SDS011;1441;48.886;8.728;2023-03-01T02:23:29;14.77;;;8.83;;
2866;SDS011;1441;48.886;8.728;2023-03-01T02:26:09;15.87;;;9.40;;
2866;SDS011;1441;48.886;8.728;2023-03-01T02:28:44;13.90;;;8.90;;
2866;SDS011;1441;48.886;8.728;2023-03-01T02:31:11;13.73;;;8.73;;
2866;SDS011;1441;48.886;8.728;2023-03-01T02:34:00;18.80;;;9.50;;
2866;SDS011;1441;48.886;8.728;2023-03-01T02:36:30;16.23;;;10.57;;
2866;SDS011;1441;48.886;8.728;2023-03-01T02:38:59;15.10;;;8.60;;
2866;SDS011;1441;48.886;8.728;2023-03-01T02:41:28;14.80;;;8.43;;
2866;SDS011;1441;48.886;8.728;2023-03-01T02:43:57;18.00;;;9.67;;
2866;SDS011;1441;48.886;8.728;2023-03-01T02:46:24;12.23;;;9.00;;
2866;SDS011;1441;48.886;8.728;2023-03-01T02:48:55;16.03;;;9.33;;
2866;SDS011;1441;48.886;8.728;2023-03-01T02:57:01;12.97;;;8.70;;
2866;SDS011;1441;48.886;8.728;2023-03-01T02:59:29;14.87;;;8.80;;
2866;SDS011;1441;48.886;8.728;2023-03-01T03:02:04;14.87;;;9.00;;
2866;SDS011;1441;48.886;8.728;2023-03-01T03:04:45;15.97;;;9.07;;
2866;SDS011;1441;48.886;8.728;2023-03-01T03:07:11;13.97;;;8.90;;
2866;SDS011;1441;48.886;8.728;2023-03-01T03:09:37;18.80;;;9.53;;
2866;SDS011;1441;48.886;8.728;2023-03-01T03:12:02;14.20;;;9.40;;
2866;SDS011;1441;48.886;8.728;2023-03-01T03:14:28;15.23;;;9.10;;
2866;SDS011;1441;48.886;8.728;2023-03-01T03:16:54;17.00;;;10.03;;
2866;SDS011;1441;48.886;8.728;2023-03-01T03:19:19;14.00;;;9.27;;
2866;SDS011;1441;48.886;8.728;2023-03-01T03:21:45;13.93;;;8.77;;
2866;SDS011;1441;48.886;8.728;2023-03-01T03:24:11;14.60;;;9.50;;
2866;SDS011;1441;48.886;8.728;2023-03-01T03:26:37;17.70;;;9.90;;
2866;SDS011;1441;48.886;8.728;2023-03-01T03:29:03;15.40;;;9.80;;
2866;SDS011;1441;48.886;8.728;2023-03-01T03:31:28;16.63;;;10.20;;
2866;SDS011;1441;48.886;8.728;2023-03-01T03:33:54;15.70;;;8.83;;
2866;SDS011;1441;48.886;8.728;2023-03-01T03:36:21;13.67;;;8.87;;
2866;SDS011;1441;48.886;8.728;2023-03-01T03:38:48;14.70;;;8.80;;
2866;SDS011;1441;48.886;8.728;2023-03-01T03:41:14;19.00;;;9.33;;
2866;SDS011;1441;48.886;8.728;2023-03-01T03:43:40;17.60;;;10.23;;
2866;SDS011;1441;48.886;8.728;2023-03-01T03:46:08;13.37;;;8.83;;
2866;SDS011;1441;48.886;8.728;2023-03-01T03:48:35;19.33;;;9.63;;
2866;SDS011;1441;48.886;8.728;2023-03-01T03:51:06;14.90;;;9.63;;
2866;SDS011;1441;48.886;8.728;2023-03-01T03:53:34;13.00;;;9.03;;
2866;SDS011;1441;48.886;8.728;2023-03-01T03:55:59;14.67;;;9.33;;
2866;SDS011;1441;48.886;8.728;2023-03-01T03:58:25;16.90;;;10.07;;
2866;SDS011;1441;48.886;8.728;2023-03-01T04:00:53;14.50;;;9.50;;
2866;SDS011;1441;48.886;8.728;2023-03-01T04:03:22;14.17;;;9.77;;
2866;SDS011;1441;48.886;8.728;2023-03-01T04:05:50;18.67;;;10.53;;
2866;SDS011;1441;48.886;8.728;2023-03-01T04:08:17;17.13;;;10.23;;
2866;SDS011;1441;48.886;8.728;2023-03-01T04:10:46;23.23;;;10.30;;
2866;SDS011;1441;48.886;8.728;2023-03-01T04:13:14;13.73;;;9.07;;
2866;SDS011;1441;48.886;8.728;2023-03-01T04:15:44;16.93;;;10.10;;
2866;SDS011;1441;48.886;8.728;2023-03-01T04:18:15;15.27;;;10.20;;
2866;SDS011;1441;48.886;8.728;2023-03-01T04:20:41;18.97;;;10.37;;
2866;SDS011;1441;48.886;8.728;2023-03-01T04:23:12;16.27;;;9.07;;
2866;SDS011;1441;48.886;8.728;2023-03-01T04:28:06;16.87;;;10.90;;
2866;SDS011;1441;48.886;8.728;2023-03-01T04:30:32;15.20;;;9.17;;
2866;SDS011;1441;48.886;8.728;2023-03-01T04:33:01;16.60;;;9.43;;
2866;SDS011;1441;48.886;8.728;2023-03-01T04:35:28;15.50;;;9.90;;
2866;SDS011;1441;48.886;8.728;2023-03-01T04:37:54;16.40;;;9.90;;
2866;SDS011;1441;48.886;8.728;2023-03-01T04:40:20;16.83;;;10.03;;
2866;SDS011;1441;48.886;8.728;2023-03-01T04:42:46;16.73;;;9.23;;
2866;SDS011;1441;48.886;8.728;2023-03-01T04:45:12;16.80;;;10.27;;
2866;SDS011;1441;48.886;8.728;2023-03-01T04:47:39;17.07;;;10.27;;
2866;SDS011;1441;48.886;8.728;2023-03-01T04:50:05;17.07;;;10.87;;
2866;SDS011;1441;48.886;8.728;2023-03-01T04:52:31;16.57;;;9.90;;
2866;SDS011;1441;48.886;8.728;2023-03-01T04:54:57;15.40;;;10.17;;
2866;SDS011;1441;48.886;8.728;2023-03-01T04:57:22;18.00;;;10.57;;
2866;SDS011;1441;48.886;8.728;2023-03-01T04:59:48;22.10;;;10.10;;
2866;SDS011;1441;48.886;8.728;2023-03-01T05:02:13;16.33;;;9.87;;
2866;SDS011;1441;48.886;8.728;2023-03-01T05:04:39;22.27;;;11.23;;
2866;SDS011;1441;48.886;8.728;2023-03-01T05:07:04;13.97;;;9.50;;
2866;SDS011;1441;48.886;8.728;2023-03-01T05:09:30;15.10;;;10.17;;
2866;SDS011;1441;48.886;8.728;2023-03-01T05:11:56;16.67;;;10.30;;
2866;SDS011;1441;48.886;8.728;2023-03-01T05:14:21;17.57;;;10.17;;
2866;SDS011;1441;48.886;8.728;2023-03-01T05:16:47;12.83;;;9.10;;
2866;SDS011;1441;48.886;8.728;2023-03-01T05:19:13;17.70;;;9.70;;
2866;SDS011;1441;48.886;8.728;2023-03-01T05:21:47;18.63;;;10.33;;
2866;SDS011;1441;48.886;8.728;2023-03-01T05:24:29;15.07;;;9.90;;
2866;SDS011;1441;48.886;8.728;2023-03-01T05:26:56;14.03;;;9.70;;
2866;SDS011;1441;48.886;8.728;2023-03-01T05:29:23;17.43;;;10.53;;
2866;SDS011;1441;48.886;8.728;2023-03-01T05:31:57;16.90;;;10.60;;
2866;SDS011;1441;48.886;8.728;2023-03-01T05:36:51;15.93;;;9.67;;
2866;SDS011;1441;48.886;8.728;2023-03-01T05:39:18;17.60;;;10.30;;
2866;SDS011;1441;48.886;8.728;2023-03-01T05:41:46;17.63;;;10.80;;
2866;SDS011;1441;48.886;8.728;2023-03-01T05:44:12;15.90;;;10.23;;
2866;SDS011;1441;48.886;8.728;2023-03-01T05:46:37;62.83;;;30.33;;
2866;SDS011;1441;48.886;8.728;2023-03-01T05:49:03;21.13;;;11.93;;
2866;SDS011;1441;48.886;8.728;2023-03-01T05:51:29;18.67;;;10.87;;
2866;SDS011;1441;48.886;8.728;2023-03-01T05:53:54;14.43;;;10.00;;
2866;SDS011;1441;48.886;8.728;2023-03-01T05:56:20;19.27;;;10.80;;
2866;SDS011;1441;48.886;8.728;2023-03-01T05:58:47;15.57;;;10.23;;
2866;SDS011;1441;48.886;8.728;2023-03-01T06:01:14;19.13;;;10.97;;
2866;SDS011;1441;48.886;8.728;2023-03-01T06:03:39;14.40;;;9.70;;
2866;SDS011;1441;48.886;8.728;2023-03-01T06:06:05;16.87;;;9.40;;
2866;SDS011;1441;48.886;8.728;2023-03-01T06:08:31;17.10;;;10.80;;
2866;SDS011;1441;48.886;8.728;2023-03-01T06:10:56;17.90;;;11.07;;
2866;SDS011;1441;48.886;8.728;2023-03-01T06:13:22;19.50;;;10.60;;
2866;SDS011;1441;48.886;8.728;2023-03-01T06:15:48;17.67;;;11.03;;
2866;SDS011;1441;48.886;8.728;2023-03-01T06:18:14;20.30;;;12.03;;
2866;SDS011;1441;48.886;8.728;2023-03-01T06:20:40;16.67;;;10.83;;
2866;SDS011;1441;48.886;8.728;2023-03-01T06:23:05;23.37;;;12.30;;
2866;SDS011;1441;48.886;8.728;2023-03-01T06:25:31;22.30;;;11.87;;
2866;SDS011;1441;48.886;8.728;2023-03-01T06:27:57;16.97;;;10.60;;
2866;SDS011;1441;48.886;8.728;2023-03-01T06:30:23;22.80;;;11.00;;
2866;SDS011;1441;48.886;8.728;2023-03-01T06:32:50;22.87;;;12.70;;
2866;SDS011;1441;48.886;8.728;2023-03-01T06:35:17;16.77;;;10.70;;
2866;SDS011;1441;48.886;8.728;2023-03-01T06:37:43;22.10;;;12.90;;
2866;SDS011;1441;48.886;8.728;2023-03-01T06:40:10;23.33;;;11.90;;
2866;SDS011;1441;48.886;8.728;2023-03-01T06:42:36;18.13;;;11.37;;
2866;SDS011;1441;48.886;8.728;2023-03-01T06:45:03;21.23;;;11.43;;
2866;SDS011;1441;48.886;8.728;2023-03-01T06:47:31;20.50;;;11.63;;
2866;SDS011;1441;48.886;8.728;2023-03-01T06:49:58;23.90;;;12.10;;
2866;SDS011;1441;48.886;8.728;2023-03-01T06:52:24;25.77;;;13.20;;
2866;SDS011;1441;48.886;8.728;2023-03-01T06:54:49;20.27;;;11.13;;
2866;SDS011;1441;48.886;8.728;2023-03-01T06:57:15;25.17;;;11.73;;
2866;SDS011;1441;48.886;8.728;2023-03-01T06:59:41;18.80;;;11.30;;
2866;SDS011;1441;48.886;8.728;2023-03-01T07:02:08;27.97;;;13.17;;
2866;SDS011;1441;48.886;8.728;2023-03-01T07:04:35;25.70;;;12.60;;
2866;SDS011;1441;48.886;8.728;2023-03-01T07:07:01;21.40;;;11.50;;
2866;SDS011;1441;48.886;8.728;2023-03-01T07:09:26;24.77;;;13.23;;
2866;SDS011;1441;48.886;8.728;2023-03-01T07:11:52;23.03;;;12.60;;
2866;SDS011;1441;48.886;8.728;2023-03-01T07:14:17;23.50;;;12.23;;
2866;SDS011;1441;48.886;8.728;2023-03-01T07:16:44;23.00;;;12.10;;
2866;SDS011;1441;48.886;8.728;2023-03-01T07:19:10;20.87;;;12.10;;
2866;SDS011;1441;48.886;8.728;2023-03-01T07:21:36;20.67;;;11.30;;
2866;SDS011;1441;48.886;8.728;2023-03-01T07:24:04;19.57;;;11.30;;
2866;SDS011;1441;48.886;8.728;2023-03-01T07:26:31;16.90;;;10.87;;
2866;SDS011;1441;48.886;8.728;2023-03-01T07:28:58;20.57;;;10.83;;
2866;SDS011;1441;48.886;8.728;2023-03-01T07:31:25;17.00;;;11.63;;
2866;SDS011;1441;48.886;8.728;2023-03-01T07:33:52;16.70;;;10.93;;
2866;SDS011;1441;48.886;8.728;2023-03-01T07:36:18;18.17;;;11.13;;
2866;SDS011;1441;48.886;8.728;2023-03-01T07:38:44;17.83;;;11.47;;
2866;SDS011;1441;48.886;8.728;2023-03-01T07:41:09;15.57;;;11.07;;
2866;SDS011;1441;48.886;8.728;2023-03-01T07:43:35;18.53;;;12.20;;
2866;SDS011;1441;48.886;8.728;2023-03-01T07:46:01;17.23;;;11.50;;
2866;SDS011;1441;48.886;8.728;2023-03-01T07:48:27;17.10;;;11.83;;
2866;SDS011;1441;48.886;8.728;2023-03-01T07:50:53;17.40;;;11.10;;
2866;SDS011;1441;48.886;8.728;2023-03-01T07:53:19;17.57;;;12.00;;
2866;SDS011;1441;48.886;8.728;2023-03-01T07:55:45;16.47;;;11.93;;
2866;SDS011;1441;48.886;8.728;2023-03-01T07:58:10;17.97;;;11.87;;
2866;SDS011;1441;48.886;8.728;2023-03-01T08:00:36;20.00;;;13.33;;
2866;SDS011;1441;48.886;8.728;2023-03-01T08:03:01;16.80;;;12.23;;
2866;SDS011;1441;48.886;8.728;2023-03-01T08:05:28;16.33;;;11.47;;
2866;SDS011;1441;48.886;8.728;2023-03-01T08:07:53;17.50;;;12.63;;
2866;SDS011;1441;48.886;8.728;2023-03-01T08:10:19;18.10;;;13.70;;
2866;SDS011;1441;48.886;8.728;2023-03-01T08:12:45;17.43;;;12.13;;
2866;SDS011;1441;48.886;8.728;2023-03-01T08:15:10;16.00;;;13.27;;
2866;SDS011;1441;48.886;8.728;2023-03-01T08:17:36;18.03;;;12.47;;
2866;SDS011;1441;48.886;8.728;2023-03-01T08:20:02;17.97;;;12.70;;
2866;SDS011;1441;48.886;8.728;2023-03-01T08:22:31;20.23;;;13.20;;
2866;SDS011;1441;48.886;8.728;2023-03-01T08:24:56;19.67;;;13.07;;
2866;SDS011;1441;48.886;8.728;2023-03-01T08:27:22;19.97;;;14.17;;
2866;SDS011;1441;48.886;8.728;2023-03-01T08:29:47;19.57;;;12.97;;
2866;SDS011;1441;48.886;8.728;2023-03-01T08:32:13;17.33;;;13.03;;
2866;SDS011;1441;48.886;8.728;2023-03-01T08:34:38;19.57;;;12.77;;
2866;SDS011;1441;48.886;8.728;2023-03-01T08:37:04;19.30;;;13.37;;
2866;SDS011;1441;48.886;8.728;2023-03-01T08:39:30;17.83;;;12.57;;
2866;SDS011;1441;48.886;8.728;2023-03-01T08:41:56;17.53;;;12.70;;
2866;SDS011;1441;48.886;8.728;2023-03-01T08:44:22;19.93;;;13.23;;
2866;SDS011;1441;48.886;8.728;2023-03-01T08:46:47;19.70;;;13.50;;
2866;SDS011;1441;48.886;8.728;2023-03-01T08:49:15;18.27;;;12.57;;
2866;SDS011;1441;48.886;8.728;2023-03-01T08:51:43;19.97;;;13.60;;
2866;SDS011;1441;48.886;8.728;2023-03-01T08:54:19;20.50;;;12.90;;
2866;SDS011;1441;48.886;8.728;2023-03-01T08:56:46;19.93;;;13.20;;
2866;SDS011;1441;48.886;8.728;2023-03-01T08:59:12;19.40;;;12.57;;
2866;SDS011;1441;48.886;8.728;2023-03-01T09:01:39;20.80;;;12.80;;
2866;SDS011;1441;48.886;8.728;2023-03-01T09:04:05;20.10;;;13.63;;
2866;SDS011;1441;48.886;8.728;2023-03-01T09:06:31;22.07;;;13.37;;
2866;SDS011;1441;48.886;8.728;2023-03-01T09:08:58;26.37;;;14.27;;
2866;SDS011;1441;48.886;8.728;2023-03-01T09:11:24;17.27;;;12.00;;
2866;SDS011;1441;48.886;8.728;2023-03-01T09:13:49;20.60;;;13.23;;
2866;SDS011;1441;48.886;8.728;2023-03-01T09:16:16;20.50;;;12.60;;
2866;SDS011;1441;48.886;8.728;2023-03-01T09:18:43;21.30;;;14.17;;
2866;SDS011;1441;48.886;8.728;2023-03-01T09:23:36;18.13;;;12.83;;
2866;SDS011;1441;48.886;8.728;2023-03-01T09:26:04;22.20;;;14.27;;
2866;SDS011;1441;48.886;8.728;2023-03-01T09:28:34;20.63;;;13.50;;
2866;SDS011;1441;48.886;8.728;2023-03-01T09:31:01;31.70;;;14.80;;
2866;SDS011;1441;48.886;8.728;2023-03-01T09:33:27;23.30;;;14.47;;
2866;SDS011;1441;48.886;8.728;2023-03-01T09:36:01;22.00;;;12.67;;
2866;SDS011;1441;48.886;8.728;2023-03-01T09:38:28;28.53;;;13.83;;
2866;SDS011;1441;48.886;8.728;2023-03-01T09:40:54;21.80;;;13.60;;
2866;SDS011;1441;48.886;8.728;2023-03-01T09:45:54;22.67;;;14.10;;
2866;SDS011;1441;48.886;8.728;2023-03-01T09:48:24;24.80;;;14.37;;
2866;SDS011;1441;48.886;8.728;2023-03-01T09:50:52;21.90;;;14.13;;
2866;SDS011;1441;48.886;8.728;2023-03-01T09:53:21;26.33;;;13.20;;
2866;SDS011;1441;48.886;8.728;2023-03-01T09:55:59;19.93;;;13.27;;
2866;SDS011;1441;48.886;8.728;2023-03-01T09:58:34;25.73;;;13.63;;
2866;SDS011;1441;48.886;8.728;2023-03-01T10:03:44;25.20;;;14.13;;
2866;SDS011;1441;48.886;8.728;2023-03-01T10:06:28;25.13;;;12.77;;
2866;SDS011;1441;48.886;8.728;2023-03-01T10:08:57;23.57;;;14.37;;
2866;SDS011;1441;48.886;8.728;2023-03-01T10:11:33;22.73;;;14.10;;
2866;SDS011;1441;48.886;8.728;2023-03-01T10:14:03;20.23;;;13.37;;
2866;SDS011;1441;48.886;8.728;2023-03-01T10:16:41;26.27;;;14.03;;
2866;SDS011;1441;48.886;8.728;2023-03-01T10:19:23;22.63;;;14.03;;
2866;SDS011;1441;48.886;8.728;2023-03-01T10:21:55;21.20;;;12.33;;
2866;SDS011;1441;48.886;8.728;2023-03-01T10:24:37;20.90;;;13.37;;
2866;SDS011;1441;48.886;8.728;2023-03-01T10:27:04;21.53;;;13.63;;
2866;SDS011;1441;48.886;8.728;2023-03-01T10:32:36;28.17;;;14.17;;
2866;SDS011;1441;48.886;8.728;2023-03-01T10:35:14;19.90;;;12.70;;
2866;SDS011;1441;48.886;8.728;2023-03-01T10:43:19;20.83;;;13.07;;
2866;SDS011;1441;48.886;8.728;2023-03-01T10:45:45;23.40;;;14.23;;
2866;SDS011;1441;48.886;8.728;2023-03-01T10:48:12;20.87;;;13.17;;
2866;SDS011;1441;48.886;8.728;2023-03-01T10:50:49;23.27;;;14.30;;
2866;SDS011;1441;48.886;8.728;2023-03-01T10:53:38;22.73;;;14.20;;
2866;SDS011;1441;48.886;8.728;2023-03-01T10:56:05;19.67;;;12.70;;
2866;SDS011;1441;48.886;8.728;2023-03-01T10:58:37;21.30;;;12.20;;
2866;SDS011;1441;48.886;8.728;2023-03-01T11:01:05;20.43;;;13.70;;
2866;SDS011;1441;48.886;8.728;2023-03-01T11:03:41;21.97;;;13.27;;
2866;SDS011;1441;48.886;8.728;2023-03-01T11:08:42;24.17;;;12.80;;
2866;SDS011;1441;48.886;8.728;2023-03-01T11:13:49;18.00;;;12.67;;
2866;SDS011;1441;48.886;8.728;2023-03-01T11:16:22;21.20;;;13.23;;
2866;SDS011;1441;48.886;8.728;2023-03-01T11:21:34;22.77;;;14.60;;
2866;SDS011;1441;48.886;8.728;2023-03-01T11:24:01;21.63;;;13.37;;
2866;SDS011;1441;48.886;8.728;2023-03-01T11:26:31;20.87;;;13.30;;
2866;SDS011;1441;48.886;8.728;2023-03-01T11:29:04;20.23;;;12.57;;
2866;SDS011;1441;48.886;8.728;2023-03-01T11:31:35;21.47;;;13.93;;
2866;SDS011;1441;48.886;8.728;2023-03-01T11:36:52;23.20;;;13.10;;
2866;SDS011;1441;48.886;8.728;2023-03-01T11:39:29;22.10;;;13.40;;
2866;SDS011;1441;48.886;8.728;2023-03-01T11:42:05;19.63;;;13.87;;
2866;SDS011;1441;48.886;8.728;2023-03-01T11:44:59;22.13;;;13.00;;
2866;SDS011;1441;48.886;8.728;2023-03-01T12:06:05;21.00;;;13.40;;
2866;SDS011;1441;48.886;8.728;2023-03-01T12:29:00;23.30;;;14.10;;
2866;SDS011;1441;48.886;8.728;2023-03-01T12:34:58;22.03;;;13.70;;
2866;SDS011;1441;48.886;8.728;2023-03-01T12:51:42;22.30;;;14.20;;
2866;SDS011;1441;48.886;8.728;2023-03-01T12:54:25;21.33;;;14.53;;
2866;SDS011;1441;48.886;8.728;2023-03-01T12:56:53;22.63;;;13.20;;
2866;SDS011;1441;48.886;8.728;2023-03-01T12:59:29;18.80;;;13.00;;
2866;SDS011;1441;48.886;8.728;2023-03-01T13:02:06;20.97;;;13.40;;
2866;SDS011;1441;48.886;8.728;2023-03-01T13:07:28;18.37;;;13.03;;
2866;SDS011;1441;48.886;8.728;2023-03-01T13:12:48;19.20;;;13.20;;
2866;SDS011;1441;48.886;8.728;2023-03-01T13:15:26;22.97;;;13.57;;
2866;SDS011;1441;48.886;8.728;2023-03-01T13:18:11;20.80;;;13.67;;
2866;SDS011;1441;48.886;8.728;2023-03-01T13:20:51;20.07;;;14.40;;
2866;SDS011;1441;48.886;8.728;2023-03-01T13:28:37;25.23;;;14.60;;
2866;SDS011;1441;48.886;8.728;2023-03-01T13:31:07;23.33;;;14.20;;
2866;SDS011;1441;48.886;8.728;2023-03-01T13:33:40;19.67;;;14.33;;
2866;SDS011;1441;48.886;8.728;2023-03-01T13:36:10;22.93;;;14.87;;
2866;SDS011;1441;48.886;8.728;2023-03-01T13:39:02;23.97;;;14.60;;
2866;SDS011;1441;48.886;8.728;2023-03-01T13:46:49;17.90;;;13.43;;
2866;SDS011;1441;48.886;8.728;2023-03-01T13:49:30;25.37;;;15.43;;
2866;SDS011;1441;48.886;8.728;2023-03-01T13:55:01;22.13;;;12.57;;
2866;SDS011;1441;48.886;8.728;2023-03-01T13:57:34;23.00;;;13.27;;
2866;SDS011;1441;48.886;8.728;2023-03-01T14:00:04;21.87;;;14.50;;
2866;SDS011;1441;48.886;8.728;2023-03-01T14:02:30;18.10;;;14.90;;
2866;SDS011;1441;48.886;8.728;2023-03-01T14:04:59;20.20;;;14.07;;
2866;SDS011;1441;48.886;8.728;2023-03-01T14:07:26;18.27;;;13.60;;
2866;SDS011;1441;48.886;8.728;2023-03-01T14:09:58;20.10;;;13.30;;
2866;SDS011;1441;48.886;8.728;2023-03-01T14:15:27;21.00;;;14.40;;
2866;SDS011;1441;48.886;8.728;2023-03-01T14:17:59;24.40;;;15.13;;
2866;SDS011;1441;48.886;8.728;2023-03-01T14:20:42;21.57;;;13.50;;
2866;SDS011;1441;48.886;8.728;2023-03-01T14:23:17;21.93;;;14.53;;
2866;SDS011;1441;48.886;8.728;2023-03-01T14:25:52;19.13;;;13.60;;
2866;SDS011;1441;48.886;8.728;2023-03-01T14:28:30;19.23;;;13.53;;
2866;SDS011;1441;48.886;8.728;2023-03-01T14:31:00;21.90;;;13.70;;
2866;SDS011;1441;48.886;8.728;2023-03-01T14:33:33;24.17;;;13.83;;
2866;SDS011;1441;48.886;8.728;2023-03-01T14:38:37;18.80;;;13.13;;
2866;SDS011;1441;48.886;8.728;2023-03-01T14:41:18;20.93;;;13.73;;
2866;SDS011;1441;48.886;8.728;2023-03-01T14:43:49;22.73;;;14.30;;
2866;SDS011;1441;48.886;8.728;2023-03-01T14:46:21;23.80;;;14.50;;
2866;SDS011;1441;48.886;8.728;2023-03-01T14:48:51;22.90;;;13.00;;
2866;SDS011;1441;48.886;8.728;2023-03-01T14:51:19;18.83;;;13.40;;
2866;SDS011;1441;48.886;8.728;2023-03-01T14:53:44;21.70;;;14.03;;
2866;SDS011;1441;48.886;8.728;2023-03-01T14:56:14;19.70;;;14.00;;
2866;SDS011;1441;48.886;8.728;2023-03-01T14:58:42;18.27;;;12.40;;
2866;SDS011;1441;48.886;8.728;2023-03-01T15:01:13;22.03;;;13.83;;
2866;SDS011;1441;48.886;8.728;2023-03-01T15:03:41;19.50;;;12.80;;
2866;SDS011;1441;48.886;8.728;2023-03-01T15:06:14;19.20;;;13.57;;
2866;SDS011;1441;48.886;8.728;2023-03-01T15:08:45;16.50;;;12.73;;
2866;SDS011;1441;48.886;8.728;2023-03-01T15:11:48;19.87;;;12.50;;
2866;SDS011;1441;48.886;8.728;2023-03-01T15:16:52;21.13;;;13.20;;
2866;SDS011;1441;48.886;8.728;2023-03-01T15:19:18;22.03;;;13.27;;
2866;SDS011;1441;48.886;8.728;2023-03-01T15:21:44;21.00;;;13.90;;
2866;SDS011;1441;48.886;8.728;2023-03-01T15:29:27;22.90;;;13.63;;
2866;SDS011;1441;48.886;8.728;2023-03-01T15:32:02;20.50;;;13.10;;
2866;SDS011;1441;48.886;8.728;2023-03-01T15:34:30;23.70;;;15.13;;
2866;SDS011;1441;48.886;8.728;2023-03-01T15:37:02;21.03;;;14.03;;
2866;SDS011;1441;48.886;8.728;2023-03-01T15:39:34;19.47;;;12.60;;
2866;SDS011;1441;48.886;8.728;2023-03-01T15:42:09;21.33;;;13.40;;
2866;SDS011;1441;48.886;8.728;2023-03-01T15:45:06;19.03;;;12.20;;
2866;SDS011;1441;48.886;8.728;2023-03-01T15:47:36;21.17;;;13.33;;
2866;SDS011;1441;48.886;8.728;2023-03-01T15:50:05;21.93;;;13.70;;
2866;SDS011;1441;48.886;8.728;2023-03-01T15:52:42;18.90;;;12.90;;
2866;SDS011;1441;48.886;8.728;2023-03-01T15:55:18;16.17;;;11.80;;
2866;SDS011;1441;48.886;8.728;2023-03-01T15:57:47;21.53;;;12.70;;
2866;SDS011;1441;48.886;8.728;2023-03-01T16:00:21;19.42;;;14.60;;
2866;SDS011;1441;48.886;8.728;2023-03-01T16:02:49;17.33;;;12.60;;
2866;SDS011;1441;48.886;8.728;2023-03-01T16:07:45;21.20;;;12.43;;
2866;SDS011;1441;48.886;8.728;2023-03-01T16:10:10;16.57;;;12.50;;
2866;SDS011;1441;48.886;8.728;2023-03-01T16:12:36;20.70;;;12.80;;
2866;SDS011;1441;48.886;8.728;2023-03-01T16:15:04;19.30;;;12.80;;
2866;SDS011;1441;48.886;8.728;2023-03-01T16:17:36;22.77;;;13.60;;
2866;SDS011;1441;48.886;8.728;2023-03-01T16:20:02;19.30;;;12.73;;
2866;SDS011;1441;48.886;8.728;2023-03-01T16:22:29;27.07;;;12.97;;
2866;SDS011;1441;48.886;8.728;2023-03-01T16:24:54;19.10;;;12.40;;
2866;SDS011;1441;48.886;8.728;2023-03-01T16:27:20;18.13;;;12.80;;
2866;SDS011;1441;48.886;8.728;2023-03-01T16:29:45;19.80;;;12.80;;
2866;SDS011;1441;48.886;8.728;2023-03-01T16:32:11;16.83;;;11.70;;
2866;SDS011;1441;48.886;8.728;2023-03-01T16:34:36;21.30;;;13.17;;
2866;SDS011;1441;48.886;8.728;2023-03-01T16:37:02;20.07;;;13.13;;
2866;SDS011;1441;48.886;8.728;2023-03-01T16:39:28;18.43;;;12.50;;
2866;SDS011;1441;48.886;8.728;2023-03-01T16:41:53;19.53;;;13.70;;
2866;SDS011;1441;48.886;8.728;2023-03-01T16:44:19;18.33;;;12.50;;
2866;SDS011;1441;48.886;8.728;2023-03-01T16:46:44;19.80;;;12.90;;
2866;SDS011;1441;48.886;8.728;2023-03-01T16:49:10;17.97;;;12.60;;
2866;SDS011;1441;48.886;8.728;2023-03-01T16:51:35;24.90;;;13.80;;
2866;SDS011;1441;48.886;8.728;2023-03-01T16:54:01;20.77;;;12.70;;
2866;SDS011;1441;48.886;8.728;2023-03-01T16:56:27;18.90;;;12.33;;
2866;SDS011;1441;48.886;8.728;2023-03-01T16:58:54;18.83;;;12.67;;
2866;SDS011;1441;48.886;8.728;2023-03-01T17:01:19;20.57;;;12.53;;
2866;SDS011;1441;48.886;8.728;2023-03-01T17:03:48;16.03;;;12.33;;
2866;SDS011;1441;48.886;8.728;2023-03-01T17:06:16;25.00;;;15.07;;
2866;SDS011;1441;48.886;8.728;2023-03-01T17:08:43;25.20;;;15.50;;
2866;SDS011;1441;48.886;8.728;2023-03-01T17:11:10;22.40;;;13.47;;
2866;SDS011;1441;48.886;8.728;2023-03-01T17:13:37;21.27;;;13.13;;
2866;SDS011;1441;48.886;8.728;2023-03-01T17:16:07;20.17;;;13.10;;